Time;durP1;ratioP1;P1;durP2;ratioP2;P2;SDS_P1;SDS_P2;PMS_P1;PMS_P2;Temp;Humidity;BMP_temperature;BMP_pressure;BME280_temperature;BME280_humidity;BME280_pressure;Samples;Min_cycle;Max_cycle;Signal;HPM_P1;HPM_P2
2021/04/30 00:00:35;;;;;;;;;;;20.60;44.40;;;;;;471728;253;1188;-72
2021/04/30 00:02:37;;;;;;;;;;;20.60;44.30;;;;;;471602;253;1135;-72
2021/04/30 00:04:38;;;;;;;;;;;20.80;44.20;;;;;;471708;253;1058;-72
2021/04/30 00:06:39;;;;;;;;;;;20.60;44.30;;;;;;471509;253;1099;-72
2021/04/30 00:08:40;;;;;;;;;;;20.60;44.40;;;;;;471555;253;1126;-72
2021/04/30 00:10:42;;;;;;;;;;;20.60;44.60;;;;;;471509;253;1003;-72
2021/04/30 00:12:43;;;;;;;;;;;20.50;44.60;;;;;;471510;253;2198;-72
2021/04/30 00:14:44;;;;;;;;;;;20.50;44.60;;;;;;471545;253;1191;-72
2021/04/30 00:16:46;;;;;;;;;;;20.50;44.70;;;;;;471458;253;1096;-72
2021/04/30 00:18:47;;;;;;;;;;;20.40;44.70;;;;;;471630;253;1432;-72
2021/04/30 00:20:53;;;;;;;;;;;20.50;44.70;;;;;;471562;253;1121;-73
2021/04/30 00:22:52;;;;;;;;;;;20.50;44.70;;;;;;471607;253;1314;-73
2021/04/30 00:24:54;;;;;;;;;;;20.50;44.70;;;;;;471740;253;1032;-72
2021/04/30 00:26:55;;;;;;;;;;;20.50;44.70;;;;;;471649;253;1237;-72
2021/04/30 00:28:57;;;;;;;;;;;20.50;44.60;;;;;;471629;253;1185;-72
2021/04/30 00:30:58;;;;;;;;;;;20.60;44.50;;;;;;471528;253;1488;-72
2021/04/30 00:32:59;;;;;;;;;;;20.60;44.30;;;;;;471565;253;2193;-72
2021/04/30 00:35:00;;;;;;;;;;;20.60;44.30;;;;;;471611;253;1121;-72
2021/04/30 00:37:01;;;;;;;;;;;20.60;44.40;;;;;;471485;253;1101;-72
2021/04/30 00:39:03;;;;;;;;;;;20.70;44.20;;;;;;471494;253;1156;-72
2021/04/30 00:41:04;;;;;;;;;;;20.60;44.20;;;;;;471504;253;1345;-72
2021/04/30 00:43:05;;;;;;;;;;;20.60;44.30;;;;;;471547;253;1115;-72
2021/04/30 00:45:07;;;;;;;;;;;20.60;44.30;;;;;;471597;253;1170;-73
2021/04/30 00:47:08;;;;;;;;;;;20.60;44.30;;;;;;471580;253;1320;-73
2021/04/30 00:49:09;;;;;;;;;;;20.50;44.40;;;;;;471670;253;976;-72
2021/04/30 00:51:10;;;;;;;;;;;20.50;44.50;;;;;;471556;253;2151;-72
2021/04/30 00:53:12;;;;;;;;;;;20.40;44.40;;;;;;471688;253;997;-72
2021/04/30 00:55:13;;;;;;;;;;;20.50;44.40;;;;;;471724;253;1049;-73
2021/04/30 00:57:14;;;;;;;;;;;20.60;44.30;;;;;;471604;253;1107;-73
2021/04/30 00:59:16;;;;;;;;;;;20.60;44.30;;;;;;471723;253;1129;-72
2021/04/30 01:01:17;;;;;;;;;;;20.60;44.30;;;;;;471557;253;1317;-72
2021/04/30 01:03:18;;;;;;;;;;;20.60;44.30;;;;;;471545;253;1226;-73
2021/04/30 01:05:19;;;;;;;;;;;20.50;44.20;;;;;;471590;253;1261;-73
2021/04/30 01:07:21;;;;;;;;;;;20.40;44.30;;;;;;471491;253;995;-73
2021/04/30 01:09:22;;;;;;;;;;;20.50;44.30;;;;;;471543;253;1326;-73
2021/04/30 01:11:23;;;;;;;;;;;20.50;44.30;;;;;;471485;253;2205;-73
2021/04/30 01:13:25;;;;;;;;;;;20.60;44.20;;;;;;471641;252;1028;-73
2021/04/30 01:15:26;;;;;;;;;;;20.60;44.20;;;;;;471572;253;1163;-73
2021/04/30 01:17:27;;;;;;;;;;;20.60;44.00;;;;;;471647;253;1303;-72
2021/04/30 01:19:30;;;;;;;;;;;20.60;44.00;;;;;;471685;253;1042;-73
2021/04/30 01:21:30;;;;;;;;;;;20.60;43.90;;;;;;471463;253;1336;-72
2021/04/30 01:23:31;;;;;;;;;;;20.70;43.80;;;;;;471628;253;1045;-73
2021/04/30 01:25:35;;;;;;;;;;;20.60;43.90;;;;;;471695;253;960;-72
2021/04/30 01:27:34;;;;;;;;;;;20.60;44.00;;;;;;471440;253;1566;-72
2021/04/30 01:29:35;;;;;;;;;;;20.60;44.00;;;;;;471505;253;1165;-72
2021/04/30 01:31:37;;;;;;;;;;;20.50;44.20;;;;;;471468;253;2167;-72
2021/04/30 01:33:38;;;;;;;;;;;20.40;44.10;;;;;;471530;253;971;-72
2021/04/30 01:35:39;;;;;;;;;;;20.50;44.20;;;;;;471553;253;1188;-73
2021/04/30 01:37:41;;;;;;;;;;;20.50;44.10;;;;;;471488;253;1234;-72
2021/04/30 01:39:42;;;;;;;;;;;20.50;44.10;;;;;;471681;253;972;-72
2021/04/30 01:41:43;;;;;;;;;;;20.50;44.20;;;;;;471530;253;1289;-72
2021/04/30 01:43:44;;;;;;;;;;;20.50;44.20;;;;;;471628;253;954;-72
2021/04/30 01:45:51;;;;;;;;;;;20.50;44.10;;;;;;471459;253;1245;-72
2021/04/30 01:47:48;;;;;;;;;;;20.50;44.00;;;;;;471281;253;1332;-73
2021/04/30 01:49:49;;;;;;;;;;;20.50;44.00;;;;;;471660;253;979;-72
2021/04/30 01:51:51;;;;;;;;;;;20.60;44.00;;;;;;471448;253;2190;-72
2021/04/30 01:53:53;;;;;;;;;;;20.60;43.90;;;;;;471596;253;932;-72
2021/04/30 01:55:53;;;;;;;;;;;20.60;44.00;;;;;;471471;253;1429;-72
2021/04/30 01:57:54;;;;;;;;;;;20.60;44.00;;;;;;471576;253;1211;-72
2021/04/30 01:59:56;;;;;;;;;;;20.60;44.00;;;;;;471609;253;1146;-73
2021/04/30 02:01:57;;;;;;;;;;;20.60;43.90;;;;;;471477;253;1340;-72
2021/04/30 02:03:58;;;;;;;;;;;20.60;44.00;;;;;;471496;253;980;-72
2021/04/30 02:06:00;;;;;;;;;;;20.60;44.00;;;;;;471517;253;1329;-72
2021/04/30 02:08:01;;;;;;;;;;;20.50;43.90;;;;;;471611;253;1008;-72
2021/04/30 02:10:02;;;;;;;;;;;20.60;44.00;;;;;;471641;253;1075;-72
2021/04/30 02:12:04;;;;;;;;;;;20.50;44.10;;;;;;471625;253;2202;-72
2021/04/30 02:14:06;;;;;;;;;;;20.60;44.00;;;;;;471628;253;1034;-72
2021/04/30 02:16:06;;;;;;;;;;;20.50;44.10;;;;;;471534;251;1422;-72
2021/04/30 02:18:08;;;;;;;;;;;20.60;44.00;;;;;;471545;252;1080;-73
2021/04/30 02:20:09;;;;;;;;;;;20.60;43.90;;;;;;471579;253;1027;-72
2021/04/30 02:22:10;;;;;;;;;;;20.60;43.90;;;;;;471442;253;1133;-73
2021/04/30 02:24:11;;;;;;;;;;;20.70;43.80;;;;;;471567;253;1097;-72
2021/04/30 02:26:15;;;;;;;;;;;20.70;43.70;;;;;;471510;253;1130;-73
2021/04/30 02:28:15;;;;;;;;;;;20.60;43.80;;;;;;471534;253;1398;-72
2021/04/30 02:30:16;;;;;;;;;;;20.60;43.90;;;;;;471562;253;981;-73
2021/04/30 02:32:18;;;;;;;;;;;20.60;44.10;;;;;;471523;253;2198;-72
2021/04/30 02:34:19;;;;;;;;;;;20.50;44.10;;;;;;471665;253;1001;-72
2021/04/30 02:36:20;;;;;;;;;;;20.50;44.20;;;;;;471595;253;1140;-72
2021/04/30 02:38:21;;;;;;;;;;;20.60;44.10;;;;;;471644;253;1197;-73
2021/04/30 02:40:25;;;;;;;;;;;20.60;43.90;;;;;;471670;253;1125;-72
2021/04/30 02:42:25;;;;;;;;;;;20.60;44.00;;;;;;471508;253;1424;-72
2021/04/30 02:44:26;;;;;;;;;;;20.60;43.90;;;;;;471665;253;991;-72
2021/04/30 02:46:28;;;;;;;;;;;20.60;43.90;;;;;;471527;253;1146;-72
2021/04/30 02:48:32;;;;;;;;;;;20.60;44.00;;;;;;471588;253;1201;-72
2021/04/30 02:50:31;;;;;;;;;;;20.60;44.00;;;;;;471439;252;1296;-72
2021/04/30 02:52:32;;;;;;;;;;;20.60;44.10;;;;;;471526;253;2190;-72
2021/04/30 02:54:34;;;;;;;;;;;20.60;44.10;;;;;;471508;253;1002;-72
2021/04/30 02:56:35;;;;;;;;;;;20.60;43.90;;;;;;471431;253;1220;-72
2021/04/30 02:58:36;;;;;;;;;;;20.60;43.90;;;;;;471584;253;1001;-72
2021/04/30 03:00:38;;;;;;;;;;;20.60;43.80;;;;;;471576;253;1120;-73
2021/04/30 03:02:39;;;;;;;;;;;20.70;43.80;;;;;;471489;253;1144;-72
2021/04/30 03:04:40;;;;;;;;;;;20.70;43.80;;;;;;471644;253;968;-72
2021/04/30 03:06:41;;;;;;;;;;;20.60;43.90;;;;;;471470;253;1143;-72
2021/04/30 03:08:43;;;;;;;;;;;20.70;43.90;;;;;;471654;253;1091;-72
2021/04/30 03:10:44;;;;;;;;;;;20.70;43.90;;;;;;471654;253;1059;-73
2021/04/30 03:12:46;;;;;;;;;;;20.60;44.00;;;;;;471539;253;2199;-72
2021/04/30 03:14:47;;;;;;;;;;;20.60;44.00;;;;;;471621;253;1049;-72
2021/04/30 03:16:48;;;;;;;;;;;20.60;43.90;;;;;;471427;253;1210;-72
2021/04/30 03:18:50;;;;;;;;;;;20.70;43.80;;;;;;471562;253;1156;-72
2021/04/30 03:20:51;;;;;;;;;;;20.60;43.90;;;;;;471511;253;1216;-72
2021/04/30 03:22:52;;;;;;;;;;;20.60;43.90;;;;;;471496;253;982;-72
2021/04/30 03:24:53;;;;;;;;;;;20.70;43.80;;;;;;471374;253;1078;-72
2021/04/30 03:26:55;;;;;;;;;;;20.70;43.80;;;;;;471107;253;1190;-73
2021/04/30 03:28:56;;;;;;;;;;;20.70;43.70;;;;;;471278;253;1042;-72
2021/04/30 03:30:57;;;;;;;;;;;20.80;43.60;;;;;;471157;253;1228;-72
2021/04/30 03:32:59;;;;;;;;;;;20.70;43.80;;;;;;471142;253;2189;-72
2021/04/30 03:35:00;;;;;;;;;;;20.60;43.80;;;;;;471169;253;1135;-72
2021/04/30 03:37:01;;;;;;;;;;;20.60;44.00;;;;;;471111;253;1310;-72
2021/04/30 03:39:02;;;;;;;;;;;20.60;44.00;;;;;;471129;253;1048;-72
2021/04/30 03:41:04;;;;;;;;;;;20.60;44.00;;;;;;471106;244;1313;-72
2021/04/30 03:43:05;;;;;;;;;;;20.60;44.00;;;;;;471154;253;1166;-72
2021/04/30 03:45:06;;;;;;;;;;;20.60;43.90;;;;;;471230;253;1025;-72
2021/04/30 03:47:07;;;;;;;;;;;20.60;43.90;;;;;;471049;253;1151;-72
2021/04/30 03:49:09;;;;;;;;;;;20.60;43.90;;;;;;471178;253;1184;-72
2021/04/30 03:51:10;;;;;;;;;;;20.50;44.00;;;;;;471093;253;1503;-72
2021/04/30 03:53:12;;;;;;;;;;;20.60;44.00;;;;;;471105;253;2182;-72
2021/04/30 03:55:13;;;;;;;;;;;20.60;43.80;;;;;;471419;253;972;-73
2021/04/30 03:57:14;;;;;;;;;;;20.70;43.60;;;;;;471510;253;1199;-72
2021/04/30 03:59:15;;;;;;;;;;;20.70;43.50;;;;;;471645;253;1326;-73
2021/04/30 04:01:17;;;;;;;;;;;20.80;43.40;;;;;;471487;252;1162;-72
2021/04/30 04:03:18;;;;;;;;;;;20.80;43.30;;;;;;471628;253;1150;-72
2021/04/30 04:05:19;;;;;;;;;;;20.80;43.20;;;;;;471566;253;1148;-72
2021/04/30 04:07:21;;;;;;;;;;;20.80;43.20;;;;;;471436;253;1123;-72
2021/04/30 04:09:22;;;;;;;;;;;20.80;43.30;;;;;;471581;253;1074;-72
2021/04/30 04:11:23;;;;;;;;;;;20.80;43.20;;;;;;471455;253;1202;-72
2021/04/30 04:13:24;;;;;;;;;;;20.90;43.10;;;;;;471522;253;2206;-73
2021/04/30 04:15:26;;;;;;;;;;;20.80;43.10;;;;;;471608;253;1053;-72
2021/04/30 04:17:27;;;;;;;;;;;20.80;43.00;;;;;;471554;253;1145;-72
2021/04/30 04:19:28;;;;;;;;;;;20.90;43.00;;;;;;471711;253;1188;-72
2021/04/30 04:21:29;;;;;;;;;;;20.90;42.90;;;;;;471500;253;1224;-72
2021/04/30 04:23:31;;;;;;;;;;;20.90;42.80;;;;;;471646;253;953;-72
2021/04/30 04:25:32;;;;;;;;;;;20.90;42.90;;;;;;471627;253;1086;-72
2021/04/30 04:27:33;;;;;;;;;;;20.90;42.70;;;;;;471592;253;1208;-73
2021/04/30 04:29:35;;;;;;;;;;;20.90;42.70;;;;;;471583;253;1061;-73
2021/04/30 04:31:36;;;;;;;;;;;20.90;42.70;;;;;;471447;253;1165;-72
2021/04/30 04:33:37;;;;;;;;;;;20.90;42.70;;;;;;471491;253;2172;-72
2021/04/30 04:35:38;;;;;;;;;;;21.00;42.60;;;;;;471472;253;1045;-72
2021/04/30 04:37:40;;;;;;;;;;;21.00;42.50;;;;;;471479;253;1179;-72
2021/04/30 04:39:41;;;;;;;;;;;20.90;42.50;;;;;;471481;253;1063;-72
2021/04/30 04:41:42;;;;;;;;;;;20.90;42.60;;;;;;471492;253;1286;-72
2021/04/30 04:43:43;;;;;;;;;;;20.90;42.60;;;;;;471564;253;975;-72
2021/04/30 04:45:45;;;;;;;;;;;20.90;42.60;;;;;;471335;253;1230;-72
2021/04/30 04:47:46;;;;;;;;;;;20.80;42.60;;;;;;471441;253;1099;-72
2021/04/30 04:49:47;;;;;;;;;;;20.90;42.70;;;;;;471453;253;1223;-72
2021/04/30 04:51:49;;;;;;;;;;;20.80;42.70;;;;;;471274;253;1696;-72
2021/04/30 04:53:50;;;;;;;;;;;20.90;42.60;;;;;;471393;253;2194;-72
2021/04/30 04:55:51;;;;;;;;;;;20.90;42.50;;;;;;471299;253;1198;-72
2021/04/30 04:57:52;;;;;;;;;;;20.90;42.50;;;;;;471403;253;1158;-72
2021/04/30 04:59:54;;;;;;;;;;;21.00;42.50;;;;;;471371;253;990;-72
2021/04/30 05:01:55;;;;;;;;;;;21.00;42.40;;;;;;471409;253;1161;-72
2021/04/30 05:03:56;;;;;;;;;;;20.90;42.40;;;;;;471362;253;1235;-73
2021/04/30 05:05:58;;;;;;;;;;;20.90;42.50;;;;;;471330;253;1182;-72
2021/04/30 05:07:59;;;;;;;;;;;20.80;42.50;;;;;;471396;253;1070;-72
2021/04/30 05:10:00;;;;;;;;;;;20.80;42.40;;;;;;471504;253;1048;-72
2021/04/30 05:12:01;;;;;;;;;;;20.80;42.40;;;;;;471431;253;1075;-72
2021/04/30 05:14:03;;;;;;;;;;;20.80;42.50;;;;;;471376;253;2194;-72
2021/04/30 05:16:04;;;;;;;;;;;20.80;42.50;;;;;;471361;253;1050;-72
2021/04/30 05:18:05;;;;;;;;;;;20.80;42.50;;;;;;471378;253;1086;-72
2021/04/30 05:20:06;;;;;;;;;;;20.80;42.40;;;;;;471376;253;1231;-72
2021/04/30 05:22:10;;;;;;;;;;;20.90;42.20;;;;;;471224;253;1165;-72
2021/04/30 05:24:10;;;;;;;;;;;20.80;42.20;;;;;;471154;253;1425;-72
2021/04/30 05:26:11;;;;;;;;;;;20.90;42.10;;;;;;471297;253;1108;-72
2021/04/30 05:28:12;;;;;;;;;;;20.80;42.10;;;;;;471328;253;1078;-73
2021/04/30 05:30:13;;;;;;;;;;;20.80;42.10;;;;;;471330;253;1054;-73
2021/04/30 05:32:16;;;;;;;;;;;20.90;42.00;;;;;;471238;253;1110;-73
2021/04/30 05:34:16;;;;;;;;;;;20.90;41.80;;;;;;471269;253;2195;-73
2021/04/30 05:36:18;;;;;;;;;;;20.80;41.80;;;;;;471344;253;1218;-73
2021/04/30 05:38:19;;;;;;;;;;;20.90;41.90;;;;;;471372;253;1157;-72
2021/04/30 05:40:20;;;;;;;;;;;21.00;41.70;;;;;;471293;253;1245;-73
2021/04/30 05:42:21;;;;;;;;;;;21.00;41.70;;;;;;471244;253;1094;-72
2021/04/30 05:44:22;;;;;;;;;;;21.00;41.60;;;;;;471254;253;1087;-72
2021/04/30 05:46:24;;;;;;;;;;;21.00;41.50;;;;;;471032;253;1473;-72
2021/04/30 05:48:25;;;;;;;;;;;21.00;41.50;;;;;;471112;253;1213;-72
2021/04/30 05:50:26;;;;;;;;;;;21.00;41.50;;;;;;471142;253;1262;-72
2021/04/30 05:52:28;;;;;;;;;;;21.10;41.40;;;;;;471123;253;1319;-72
2021/04/30 05:54:30;;;;;;;;;;;21.10;41.20;;;;;;471076;253;2194;-72
2021/04/30 05:56:30;;;;;;;;;;;21.10;41.20;;;;;;471005;253;1362;-72
2021/04/30 05:58:31;;;;;;;;;;;21.10;41.10;;;;;;471222;253;1070;-72
2021/04/30 06:00:33;;;;;;;;;;;21.00;41.10;;;;;;471235;253;1122;-72
2021/04/30 06:02:34;;;;;;;;;;;21.00;41.30;;;;;;471230;253;1172;-72
2021/04/30 06:04:35;;;;;;;;;;;21.00;41.30;;;;;;471159;253;1106;-72
2021/04/30 06:06:37;;;;;;;;;;;21.00;41.10;;;;;;471152;252;1196;-73
2021/04/30 06:08:38;;;;;;;;;;;21.00;41.10;;;;;;471141;253;1028;-73
2021/04/30 06:10:39;;;;;;;;;;;21.10;41.00;;;;;;471187;253;1276;-73
2021/04/30 06:12:41;;;;;;;;;;;21.00;41.00;;;;;;471103;253;1146;-73
2021/04/30 06:14:42;;;;;;;;;;;21.00;41.00;;;;;;471125;253;2131;-73
2021/04/30 06:16:44;;;;;;;;;;;21.00;41.10;;;;;;470899;253;1236;-73
2021/04/30 06:18:45;;;;;;;;;;;20.90;41.20;;;;;;471014;253;1047;-73
2021/04/30 06:20:46;;;;;;;;;;;20.90;41.20;;;;;;470876;249;1173;-72
2021/04/30 06:22:48;;;;;;;;;;;20.90;41.10;;;;;;471054;253;1192;-72
2021/04/30 06:24:49;;;;;;;;;;;20.80;41.00;;;;;;471001;253;1089;-72
2021/04/30 06:26:50;;;;;;;;;;;20.90;41.10;;;;;;470934;253;1200;-72
2021/04/30 06:28:52;;;;;;;;;;;20.90;41.00;;;;;;470916;253;1127;-72
2021/04/30 06:30:55;;;;;;;;;;;20.90;40.90;;;;;;470826;253;1090;-72
2021/04/30 06:32:54;;;;;;;;;;;21.00;40.70;;;;;;470624;253;1233;-72
2021/04/30 06:34:55;;;;;;;;;;;21.00;40.60;;;;;;471068;253;2151;-72
2021/04/30 06:36:57;;;;;;;;;;;20.90;40.50;;;;;;471071;253;1047;-73
2021/04/30 06:38:58;;;;;;;;;;;21.00;40.50;;;;;;471051;253;1367;-72
2021/04/30 06:40:59;;;;;;;;;;;21.00;40.50;;;;;;470965;253;1144;-72
2021/04/30 06:43:01;;;;;;;;;;;20.90;40.40;;;;;;470993;253;1062;-72
2021/04/30 06:45:02;;;;;;;;;;;21.00;40.40;;;;;;471049;253;1050;-73
2021/04/30 06:47:03;;;;;;;;;;;21.00;40.20;;;;;;470987;253;1245;-72
2021/04/30 06:49:04;;;;;;;;;;;21.00;40.20;;;;;;471048;253;1076;-73
2021/04/30 06:51:06;;;;;;;;;;;21.00;40.20;;;;;;471015;253;1180;-73
2021/04/30 06:53:07;;;;;;;;;;;21.00;40.10;;;;;;471071;253;1053;-73
2021/04/30 06:55:08;;;;;;;;;;;21.00;40.10;;;;;;470931;253;2174;-72
2021/04/30 06:57:10;;;;;;;;;;;21.00;40.20;;;;;;470990;253;1198;-72
2021/04/30 06:59:11;;;;;;;;;;;21.00;40.10;;;;;;470964;253;1066;-72
2021/04/30 07:01:12;;;;;;;;;;;21.00;40.10;;;;;;470887;252;1155;-72
2021/04/30 07:03:13;;;;;;;;;;;20.90;40.00;;;;;;470912;253;1126;-72
2021/04/30 07:05:15;;;;;;;;;;;21.00;40.10;;;;;;470987;253;1306;-72
2021/04/30 07:07:16;;;;;;;;;;;21.00;40.10;;;;;;470916;253;1146;-72
2021/04/30 07:09:17;;;;;;;;;;;21.00;40.00;;;;;;470827;253;1313;-73
2021/04/30 07:11:18;;;;;;;;;;;20.90;40.00;;;;;;470818;253;1039;-72
2021/04/30 07:13:20;;;;;;;;;;;21.00;40.00;;;;;;470973;253;1171;-72
2021/04/30 07:15:21;;;;;;;;;;;20.90;40.00;;;;;;471010;253;2232;-72
2021/04/30 07:17:22;;;;;;;;;;;20.90;40.00;;;;;;470978;253;1213;-73
2021/04/30 07:19:24;;;;;;;;;;;20.80;40.00;;;;;;471130;253;1134;-72
2021/04/30 07:21:25;;;;;;;;;;;20.90;39.90;;;;;;470945;253;1149;-72
2021/04/30 07:23:26;;;;;;;;;;;20.90;39.90;;;;;;471039;253;1072;-72
2021/04/30 07:25:28;;;;;;;;;;;20.90;39.90;;;;;;470859;253;1039;-72
2021/04/30 07:27:29;;;;;;;;;;;20.90;39.90;;;;;;470790;253;1124;-72
2021/04/30 07:29:30;;;;;;;;;;;20.90;39.80;;;;;;470992;253;1081;-72
2021/04/30 07:31:31;;;;;;;;;;;20.90;39.80;;;;;;470985;253;1323;-72
2021/04/30 07:33:33;;;;;;;;;;;20.90;39.80;;;;;;470929;253;2207;-72
2021/04/30 07:35:34;;;;;;;;;;;20.90;39.90;;;;;;470909;253;1195;-72
2021/04/30 07:37:37;;;;;;;;;;;20.80;40.00;;;;;;470904;253;1132;-72
2021/04/30 07:39:36;;;;;;;;;;;20.80;39.90;;;;;;470593;253;1860;-72
2021/04/30 07:41:38;;;;;;;;;;;20.90;39.80;;;;;;470641;253;1193;-72
2021/04/30 07:43:39;;;;;;;;;;;20.90;39.90;;;;;;470833;253;1098;-72
2021/04/30 07:45:40;;;;;;;;;;;20.90;40.00;;;;;;470832;245;1216;-72
2021/04/30 07:47:42;;;;;;;;;;;20.80;39.90;;;;;;470818;253;1103;-72
2021/04/30 07:49:43;;;;;;;;;;;20.80;39.80;;;;;;470758;253;1134;-72
2021/04/30 07:51:44;;;;;;;;;;;20.80;40.00;;;;;;470880;253;1231;-72
2021/04/30 07:53:45;;;;;;;;;;;20.90;39.80;;;;;;470954;253;2206;-72
2021/04/30 07:55:47;;;;;;;;;;;20.80;39.90;;;;;;470896;253;1152;-72
2021/04/30 07:57:48;;;;;;;;;;;20.80;40.10;;;;;;470855;253;1190;-72
2021/04/30 07:59:49;;;;;;;;;;;20.70;40.20;;;;;;470766;253;1062;-72
2021/04/30 08:01:50;;;;;;;;;;;20.70;40.30;;;;;;470681;253;1220;-72
2021/04/30 08:03:52;;;;;;;;;;;20.70;40.30;;;;;;470680;253;1324;-72
2021/04/30 08:05:53;;;;;;;;;;;20.70;40.40;;;;;;470674;253;1120;-72
2021/04/30 08:07:54;;;;;;;;;;;20.70;40.60;;;;;;470676;253;1178;-72
2021/04/30 08:09:56;;;;;;;;;;;20.70;40.60;;;;;;470784;253;1084;-72
2021/04/30 08:11:57;;;;;;;;;;;20.70;40.80;;;;;;470734;253;1063;-72
2021/04/30 08:13:59;;;;;;;;;;;20.70;40.70;;;;;;470711;253;2178;-72
2021/04/30 08:15:59;;;;;;;;;;;20.70;40.70;;;;;;470636;253;1224;-72
2021/04/30 08:18:01;;;;;;;;;;;20.70;40.90;;;;;;470773;253;1142;-72
2021/04/30 08:20:03;;;;;;;;;;;20.70;40.90;;;;;;470793;253;1122;-72
2021/04/30 08:22:03;;;;;;;;;;;20.70;41.00;;;;;;470632;253;1274;-72
2021/04/30 08:24:05;;;;;;;;;;;20.70;41.00;;;;;;470855;253;1196;-72
2021/04/30 08:26:06;;;;;;;;;;;20.70;41.20;;;;;;470866;251;1141;-72
2021/04/30 08:28:07;;;;;;;;;;;20.70;41.20;;;;;;470805;253;1090;-72
2021/04/30 08:30:08;;;;;;;;;;;20.60;41.20;;;;;;470862;253;1072;-72
2021/04/30 08:32:10;;;;;;;;;;;20.60;41.20;;;;;;470954;253;1506;-72
2021/04/30 08:34:11;;;;;;;;;;;20.60;41.30;;;;;;470944;253;2186;-72
2021/04/30 08:36:12;;;;;;;;;;;20.60;41.30;;;;;;470876;253;1531;-72
2021/04/30 08:38:13;;;;;;;;;;;20.60;41.20;;;;;;470964;253;1173;-72
2021/04/30 08:40:15;;;;;;;;;;;20.60;41.30;;;;;;471344;246;1192;-72
2021/04/30 08:42:16;;;;;;;;;;;20.60;41.20;;;;;;470917;253;1119;-72
2021/04/30 08:44:17;;;;;;;;;;;20.60;41.30;;;;;;470956;253;1078;-72
2021/04/30 08:46:19;;;;;;;;;;;20.70;41.30;;;;;;470926;253;1288;-72
2021/04/30 08:48:20;;;;;;;;;;;20.70;41.40;;;;;;471035;253;1060;-72
2021/04/30 08:50:21;;;;;;;;;;;20.70;41.30;;;;;;470886;253;1239;-72
2021/04/30 08:52:22;;;;;;;;;;;20.70;41.40;;;;;;470885;252;1303;-72
2021/04/30 08:54:24;;;;;;;;;;;20.70;41.30;;;;;;470794;253;2190;-72
2021/04/30 08:56:25;;;;;;;;;;;20.80;41.40;;;;;;470773;253;1084;-72
2021/04/30 08:58:26;;;;;;;;;;;20.70;41.40;;;;;;470955;253;1113;-72
2021/04/30 09:00:29;;;;;;;;;;;20.70;41.60;;;;;;470935;253;1074;-72
2021/04/30 09:02:29;;;;;;;;;;;20.70;41.60;;;;;;470771;253;1373;-72
2021/04/30 09:04:30;;;;;;;;;;;20.70;41.70;;;;;;470924;253;1100;-72
2021/04/30 09:06:31;;;;;;;;;;;20.70;41.70;;;;;;470843;253;1097;-72
2021/04/30 09:08:33;;;;;;;;;;;20.70;41.70;;;;;;470979;253;1231;-72
2021/04/30 09:10:34;;;;;;;;;;;20.70;41.70;;;;;;470963;253;1103;-72
2021/04/30 09:12:35;;;;;;;;;;;20.70;41.80;;;;;;470947;253;1184;-72
2021/04/30 09:14:37;;;;;;;;;;;20.70;41.70;;;;;;470815;253;2190;-72
2021/04/30 09:16:38;;;;;;;;;;;20.70;41.60;;;;;;470748;253;1105;-72
2021/04/30 09:18:39;;;;;;;;;;;20.60;41.80;;;;;;470769;253;1225;-72
2021/04/30 09:20:40;;;;;;;;;;;20.70;41.90;;;;;;470680;253;1140;-72
2021/04/30 09:22:43;;;;;;;;;;;20.60;41.90;;;;;;470663;253;1436;-72
2021/04/30 09:24:43;;;;;;;;;;;20.60;41.90;;;;;;470589;253;1455;-72
2021/04/30 09:26:44;;;;;;;;;;;20.70;42.00;;;;;;470712;253;1066;-72
2021/04/30 09:28:45;;;;;;;;;;;20.70;41.80;;;;;;470600;253;1162;-72
2021/04/30 09:30:47;;;;;;;;;;;20.80;41.90;;;;;;470463;249;1358;-72
2021/04/30 09:32:48;;;;;;;;;;;20.90;41.80;;;;;;470543;253;1081;-72
2021/04/30 09:34:49;;;;;;;;;;;20.90;41.60;;;;;;470713;253;2214;-72
2021/04/30 09:36:50;;;;;;;;;;;21.00;41.60;;;;;;470654;253;1120;-72
2021/04/30 09:38:52;;;;;;;;;;;21.00;41.60;;;;;;470648;253;1278;-72
2021/04/30 09:40:53;;;;;;;;;;;21.00;41.80;;;;;;470409;253;1087;-72
2021/04/30 09:42:54;;;;;;;;;;;21.00;41.80;;;;;;470524;253;1065;-72
2021/04/30 09:44:56;;;;;;;;;;;21.00;41.80;;;;;;470538;253;1087;-72
2021/04/30 09:46:57;;;;;;;;;;;21.10;41.60;;;;;;470828;253;1083;-72
2021/04/30 09:48:59;;;;;;;;;;;21.20;41.60;;;;;;470771;253;1066;-72
2021/04/30 09:51:00;;;;;;;;;;;21.20;41.50;;;;;;470848;253;1094;-72
2021/04/30 09:53:02;;;;;;;;;;;21.30;41.40;;;;;;470938;253;1088;-72
2021/04/30 09:55:05;;;;;;;;;;;21.30;41.40;;;;;;470853;253;2190;-73
2021/04/30 09:57:04;;;;;;;;;;;21.20;41.60;;;;;;470691;253;1378;-72
2021/04/30 09:59:06;;;;;;;;;;;21.20;41.70;;;;;;471029;253;1042;-72
2021/04/30 10:01:07;;;;;;;;;;;21.10;41.70;;;;;;470962;253;1180;-72
2021/04/30 10:03:08;;;;;;;;;;;21.20;41.80;;;;;;470996;253;1107;-72
2021/04/30 10:05:10;;;;;;;;;;;21.20;41.70;;;;;;470856;253;1253;-72
2021/04/30 10:07:11;;;;;;;;;;;21.30;41.60;;;;;;470858;253;1366;-72
2021/04/30 10:09:12;;;;;;;;;;;21.30;41.60;;;;;;470889;253;1239;-72
2021/04/30 10:11:13;;;;;;;;;;;21.30;41.60;;;;;;470883;253;1123;-72
2021/04/30 10:13:15;;;;;;;;;;;21.30;41.60;;;;;;470707;253;1120;-73
2021/04/30 10:15:18;;;;;;;;;;;21.30;41.60;;;;;;470738;253;2186;-72
2021/04/30 10:17:17;;;;;;;;;;;21.30;41.60;;;;;;470250;253;1388;-72
2021/04/30 10:19:19;;;;;;;;;;;21.30;41.60;;;;;;470695;253;1100;-72
2021/04/30 10:21:20;;;;;;;;;;;21.30;41.70;;;;;;470703;253;1317;-72
2021/04/30 10:23:22;;;;;;;;;;;21.40;41.70;;;;;;471207;253;1129;-72
2021/04/30 10:25:23;;;;;;;;;;;21.40;41.70;;;;;;470796;253;1420;-72
2021/04/30 10:27:24;;;;;;;;;;;21.30;41.70;;;;;;470877;253;1094;-72
2021/04/30 10:29:25;;;;;;;;;;;21.30;41.80;;;;;;470832;253;1129;-72
2021/04/30 10:31:26;;;;;;;;;;;21.30;41.90;;;;;;470736;253;1207;-72
2021/04/30 10:33:28;;;;;;;;;;;21.30;41.80;;;;;;471050;253;1038;-72
2021/04/30 10:35:29;;;;;;;;;;;21.30;41.80;;;;;;470963;253;2195;-72
2021/04/30 10:37:31;;;;;;;;;;;21.30;41.90;;;;;;470859;253;1655;-72
2021/04/30 10:39:32;;;;;;;;;;;21.20;42.00;;;;;;470919;253;1338;-72
2021/04/30 10:41:33;;;;;;;;;;;21.20;41.90;;;;;;470857;253;1376;-72
2021/04/30 10:43:34;;;;;;;;;;;21.30;41.90;;;;;;471394;253;1072;-72
2021/04/30 10:45:35;;;;;;;;;;;21.30;41.70;;;;;;471469;253;866;-72
2021/04/30 10:47:37;;;;;;;;;;;21.40;41.70;;;;;;470932;253;1066;-72
2021/04/30 10:49:38;;;;;;;;;;;21.20;41.90;;;;;;470893;253;1147;-72
2021/04/30 10:51:39;;;;;;;;;;;21.30;41.90;;;;;;470951;244;1267;-72
2021/04/30 10:53:40;;;;;;;;;;;21.20;42.10;;;;;;471423;253;1090;-72
2021/04/30 10:55:44;;;;;;;;;;;21.20;42.20;;;;;;471440;253;2198;-72
2021/04/30 10:57:43;;;;;;;;;;;21.30;42.20;;;;;;470855;253;1297;-72
2021/04/30 10:59:44;;;;;;;;;;;21.20;42.10;;;;;;470778;253;1061;-73
2021/04/30 11:01:45;;;;;;;;;;;21.30;42.00;;;;;;470754;253;1062;-72
2021/04/30 11:03:47;;;;;;;;;;;21.30;41.90;;;;;;471018;253;1062;-72
2021/04/30 11:05:48;;;;;;;;;;;21.30;41.90;;;;;;471006;253;1102;-72
2021/04/30 11:07:50;;;;;;;;;;;21.30;42.10;;;;;;471068;253;1164;-72
2021/04/30 11:09:51;;;;;;;;;;;21.40;42.00;;;;;;470925;253;1394;-72
2021/04/30 11:11:52;;;;;;;;;;;21.30;42.00;;;;;;470979;253;1080;-72
2021/04/30 11:13:53;;;;;;;;;;;21.30;42.00;;;;;;471002;253;1082;-72
2021/04/30 11:15:54;;;;;;;;;;;21.40;42.00;;;;;;471004;253;2190;-73
2021/04/30 11:17:56;;;;;;;;;;;21.30;42.00;;;;;;471103;253;1116;-72
2021/04/30 11:19:57;;;;;;;;;;;21.30;42.00;;;;;;470984;253;1166;-72
2021/04/30 11:21:58;;;;;;;;;;;21.30;42.10;;;;;;470905;253;1407;-72
2021/04/30 11:24:00;;;;;;;;;;;21.30;42.30;;;;;;470968;253;1196;-72
2021/04/30 11:26:02;;;;;;;;;;;21.20;42.40;;;;;;470860;253;1281;-73
2021/04/30 11:28:03;;;;;;;;;;;21.20;42.50;;;;;;470809;253;1869;-73
2021/04/30 11:30:03;;;;;;;;;;;21.20;42.50;;;;;;470849;253;1401;-73
2021/04/30 11:32:05;;;;;;;;;;;21.20;42.70;;;;;;470991;253;1220;-72
2021/04/30 11:34:06;;;;;;;;;;;21.20;42.60;;;;;;470938;253;1205;-73
2021/04/30 11:36:08;;;;;;;;;;;21.30;42.80;;;;;;470977;253;2202;-72
2021/04/30 11:38:09;;;;;;;;;;;21.30;42.70;;;;;;470949;253;1212;-72
2021/04/30 11:40:10;;;;;;;;;;;21.30;42.70;;;;;;470783;253;1218;-72
2021/04/30 11:42:13;;;;;;;;;;;21.40;42.50;;;;;;470784;245;1233;-72
2021/04/30 11:44:13;;;;;;;;;;;21.40;42.50;;;;;;470698;253;1339;-72
2021/04/30 11:46:14;;;;;;;;;;;21.30;42.60;;;;;;470909;253;1296;-72
2021/04/30 11:48:15;;;;;;;;;;;21.40;42.60;;;;;;470920;253;1091;-72
2021/04/30 11:50:17;;;;;;;;;;;21.30;42.80;;;;;;471103;253;1050;-72
2021/04/30 11:52:18;;;;;;;;;;;21.30;42.80;;;;;;471012;253;1219;-72
2021/04/30 11:54:19;;;;;;;;;;;21.50;42.50;;;;;;471045;253;1150;-72
2021/04/30 11:56:20;;;;;;;;;;;21.40;42.60;;;;;;471012;253;2163;-72